Airfield :
LOGIN :

Register | Disclaimer

   EN    FR    IT 

 










Legend :    VFR   Marginal VFR   IFR   Intensive IFR   Very Intensive IFR
Visi :
Ceiling :
>= 8 km
>= 3000ft
5 to 8 km
1000 to 3000 ft
1500m to 5 km
500 to 1000 ft
800 to 1500m
200 to 500 ft
< 800m
< 200 ft
Symbols :   Thunderstorms  Fog  Heavy snow  Heavy precipitations  Wind > 20 kt
SIGMETs :     Misc.  Thunderstorms  Icing  Turbulence  Mountain Waves  Volcanic Ashes






- Airport Elevation : 370 ft


EBBE - Beauvechain AB

CURRENT METAR :
  • 112125Z AUTO 21010KT 9999 BKN047/// 05/03 Q1004 BLU

EXPIRED METARs :
  • 112055Z AUTO 20010KT 9999 NCD 05/03 Q1004 BLU
  • 112025Z AUTO 20011KT 9999 SCT230/// 05/03 Q1004 BLU
  • 111955Z AUTO 20010KT 9999 BKN220/// 05/04 Q1004 BLU
  • 111855Z AUTO 20009KT 9999 BKN210/// 05/04 Q1005 BLU

TAF TAF EBBE
Valid from the 11 at 19:00 until the 12 at 07:00 UTC


111541Z 1119/1207 23010KT 9999 FEW025 SCT030 BKN220
BECMG 1121/1123 FEW008 SCT010 BKN015
TEMPO 1122/1207 23022G22KT 4000 -RADZ SCT005 BKN007



MET'MAP, your aeronautical weather chart ! - Copyright ORBIFLY December 2007 - Disclaimer

ORBIFLY MET'MAP TEAM :

Programming & Development : Alexandra Zaïnal
Concept & original design : Baudouin d'Aumeries
Assistance for programming : Marc-Olivier Méhu
Technical & hardware support : Manuel Goepfert

Contact : metmap@orbifly.com




SOURCES & CREDITS :

   NOAA